Time;durP1;ratioP1;P1;durP2;ratioP2;P2;SDS_P1;SDS_P2;PMS_P1;PMS_P2;Temp;Humidity;BMP_temperature;BMP_pressure;BME280_temperature;BME280_humidity;BME280_pressure;Samples;Min_cycle;Max_cycle;Signal;HPM_P1;HPM_P2
2023/05/28 00:00:10;;;;;;;;;;;;;;;;;;5092176;28;2042;-59
2023/05/28 00:02:45;;;;;;;;;;;;;;;;;;5091631;28;2052;-60
2023/05/28 00:05:12;;;;;;;;;;;;;;;;;;5091994;28;2072;-60
2023/05/28 00:07:41;;;;;;;;;;;;;;;;;;5091919;28;1919;-55
2023/05/28 00:10:09;;;;;;;;;;;;;;;;;;5091951;28;1921;-59
2023/05/28 00:12:36;;;;;;;;;;;;;;;;;;5092079;28;1935;-58
2023/05/28 00:15:04;;;;;;;;;;;;;;;;;;5091729;28;2094;-61
2023/05/28 00:17:31;;;;;;;;;;;;;;;;;;5091616;28;2081;-56
2023/05/28 00:19:58;;;;;;;;;;;;;;;;;;5091290;28;2431;-58
2023/05/28 00:22:25;;;;;;;;;;;;;;;;;;5091393;28;1919;-58
2023/05/28 00:24:53;;;;;;;;;;;;;;;;;;5091820;28;1835;-57
2023/05/28 00:27:20;;;;;;;;;;;;;;;;;;5091399;28;2030;-57
2023/05/28 00:29:47;;;;;;;;;;;;;;;;;;5091543;28;1921;-59
2023/05/28 00:32:14;;;;;;;;;;;;;;;;;;5091574;28;1262;-57
2023/05/28 00:34:42;;;;;;;;;;;;;;;;;;5091381;28;1607;-57
2023/05/28 00:37:09;;;;;;;;;;;;;;;;;;5090502;28;1911;-60
2023/05/28 00:39:36;;;;;;;;;;;;;;;;;;5090095;28;1803;-60
2023/05/28 00:42:04;;;;;;;;;;;;;;;;;;5091229;28;2130;-57
2023/05/28 00:44:32;;;;;;;;;;;;;;;;;;5091067;28;1969;-60
2023/05/28 00:46:59;;;;;;;;;;;;;;;;;;5091375;28;2009;-59
2023/05/28 00:49:27;;;;;;;;;;;;;;;;;;5091245;28;2195;-58
2023/05/28 00:51:55;;;;;;;;;;;;;;;;;;5091385;28;1794;-60
2023/05/28 00:54:23;;;;;;;;;;;;;;;;;;5093371;28;1773;-57
2023/05/28 00:56:54;;;;;;;;;;;;;;;;;;5091691;28;2059;-56
2023/05/28 00:59:24;;;;;;;;;;;;;;;;;;5091308;28;1911;-57
2023/05/28 01:01:52;;;;;;;;;;;;;;;;;;5091256;28;1907;-57
2023/05/28 01:04:21;;;;;;;;;;;;;;;;;;5089967;28;2072;-57
2023/05/28 01:06:49;;;;;;;;;;;;;;;;;;5090351;28;2014;-57
2023/05/28 01:09:16;;;;;;;;;;;;;;;;;;5111234;28;2139;-57
2023/05/28 01:11:43;;;;;;;;;;;;;;;;;;5111460;28;1884;-55
2023/05/28 01:14:14;;;;;;;;;;;;;;;;;;5112959;28;1809;-56
2023/05/28 01:16:41;;;;;;;;;;;;;;;;;;5115750;28;1997;-59
2023/05/28 01:19:08;;;;;;;;;;;;;;;;;;5097379;28;1821;-59
2023/05/28 01:21:41;;;;;;;;;;;;;;;;;;5096929;28;2324;-59
2023/05/28 01:24:09;;;;;;;;;;;;;;;;;;5096827;28;1936;-57
2023/05/28 01:26:37;;;;;;;;;;;;;;;;;;5096872;28;1907;-55
2023/05/28 01:29:17;;;;;;;;;;;;;;;;;;5096945;28;1978;-60
2023/05/28 01:31:45;;;;;;;;;;;;;;;;;;5096666;28;2163;-56
2023/05/28 01:34:12;;;;;;;;;;;;;;;;;;5096788;28;1844;-56
2023/05/28 01:37:00;;;;;;;;;;;;;;;;;;5096647;28;1291;-57
2023/05/28 01:39:42;;;;;;;;;;;;;;;;;;5115012;28;2059;-58
2023/05/28 01:42:10;;;;;;;;;;;;;;;;;;5096770;28;2082;-55
2023/05/28 01:44:38;;;;;;;;;;;;;;;;;;5114874;28;1811;-59
2023/05/28 01:47:09;;;;;;;;;;;;;;;;;;5114602;28;1707;-57
2023/05/28 01:49:37;;;;;;;;;;;;;;;;;;5093006;28;2011;-58
2023/05/28 01:52:05;;;;;;;;;;;;;;;;;;5093276;28;1900;-59
2023/05/28 01:54:33;;;;;;;;;;;;;;;;;;5081489;28;1847;-59
2023/05/28 01:57:01;;;;;;;;;;;;;;;;;;5075463;28;2155;-57
2023/05/28 01:59:29;;;;;;;;;;;;;;;;;;5092818;28;1938;-55
2023/05/28 02:01:56;;;;;;;;;;;;;;;;;;5092618;28;2063;-59
2023/05/28 02:04:24;;;;;;;;;;;;;;;;;;5092862;28;1691;-55
2023/05/28 02:06:51;;;;;;;;;;;;;;;;;;5093035;28;1984;-56
2023/05/28 02:09:19;;;;;;;;;;;;;;;;;;5094333;28;2131;-56
2023/05/28 02:11:46;;;;;;;;;;;;;;;;;;5093159;28;1943;-54
2023/05/28 02:14:16;;;;;;;;;;;;;;;;;;5094304;28;2041;-54
2023/05/28 02:16:52;;;;;;;;;;;;;;;;;;5092834;28;1532;-53
2023/05/28 02:19:20;;;;;;;;;;;;;;;;;;5092512;28;1912;-55
2023/05/28 02:21:47;;;;;;;;;;;;;;;;;;5092829;28;1969;-57
2023/05/28 02:24:17;;;;;;;;;;;;;;;;;;5093399;28;2085;-57
2023/05/28 02:26:44;;;;;;;;;;;;;;;;;;5094072;28;1780;-58
2023/05/28 02:29:11;;;;;;;;;;;;;;;;;;5093813;28;1816;-58
2023/05/28 02:31:39;;;;;;;;;;;;;;;;;;5093763;28;1961;-56
2023/05/28 02:34:07;;;;;;;;;;;;;;;;;;5092381;28;2032;-56
2023/05/28 02:36:36;;;;;;;;;;;;;;;;;;5092346;28;2471;-57
2023/05/28 02:39:10;;;;;;;;;;;;;;;;;;5092525;28;1758;-56
2023/05/28 02:41:37;;;;;;;;;;;;;;;;;;5092798;28;2074;-54
2023/05/28 02:44:05;;;;;;;;;;;;;;;;;;5092434;28;2042;-60
2023/05/28 02:46:33;;;;;;;;;;;;;;;;;;5093862;28;1802;-60
2023/05/28 02:49:00;;;;;;;;;;;;;;;;;;5092546;28;1941;-57
2023/05/28 02:51:28;;;;;;;;;;;;;;;;;;5091813;28;1753;-57
2023/05/28 02:54:04;;;;;;;;;;;;;;;;;;5092140;28;2144;-61
2023/05/28 02:56:31;;;;;;;;;;;;;;;;;;5093489;28;1979;-58
2023/05/28 02:58:58;;;;;;;;;;;;;;;;;;5072841;28;2000;-60
2023/05/28 03:01:26;;;;;;;;;;;;;;;;;;5071788;28;1906;-58
2023/05/28 03:03:57;;;;;;;;;;;;;;;;;;5071510;28;1917;-59
2023/05/28 03:06:24;;;;;;;;;;;;;;;;;;5071614;28;1980;-59
2023/05/28 03:08:53;;;;;;;;;;;;;;;;;;5071386;28;2150;-57
2023/05/28 03:11:21;;;;;;;;;;;;;;;;;;5071357;28;2167;-56
2023/05/28 03:13:49;;;;;;;;;;;;;;;;;;5071555;28;1864;-62
2023/05/28 03:16:17;;;;;;;;;;;;;;;;;;5071380;28;1774;-61
2023/05/28 03:18:45;;;;;;;;;;;;;;;;;;5071193;28;2028;-60
2023/05/28 03:21:13;;;;;;;;;;;;;;;;;;5071183;28;1966;-60
2023/05/28 03:23:40;;;;;;;;;;;;;;;;;;5071340;28;1262;-58
2023/05/28 03:26:31;;;;;;;;;;;;;;;;;;5074294;28;2093;-58
2023/05/28 03:28:58;;;;;;;;;;;;;;;;;;5071125;28;1920;-58
2023/05/28 03:31:46;;;;;;;;;;;;;;;;;;5071076;28;1825;-57
2023/05/28 03:34:20;;;;;;;;;;;;;;;;;;5071456;28;1910;-59
2023/05/28 03:36:47;;;;;;;;;;;;;;;;;;5071572;28;1977;-61
2023/05/28 03:39:16;;;;;;;;;;;;;;;;;;5079814;28;1866;-63
2023/05/28 03:41:45;;;;;;;;;;;;;;;;;;5090945;28;1906;-62
2023/05/28 03:44:13;;;;;;;;;;;;;;;;;;5092067;28;1920;-61
2023/05/28 03:46:43;;;;;;;;;;;;;;;;;;5091079;28;2133;-62
2023/05/28 03:49:10;;;;;;;;;;;;;;;;;;5092262;28;1854;-59
2023/05/28 03:51:37;;;;;;;;;;;;;;;;;;5112589;28;1877;-55
2023/05/28 03:54:04;;;;;;;;;;;;;;;;;;5103485;28;2077;-57
2023/05/28 03:56:33;;;;;;;;;;;;;;;;;;5092115;28;2003;-57
2023/05/28 03:59:02;;;;;;;;;;;;;;;;;;5093688;28;2085;-54
2023/05/28 04:01:30;;;;;;;;;;;;;;;;;;5111696;28;2127;-55
2023/05/28 04:03:57;;;;;;;;;;;;;;;;;;5112203;28;1719;-56
2023/05/28 04:06:26;;;;;;;;;;;;;;;;;;5094441;28;1728;-61
2023/05/28 04:08:53;;;;;;;;;;;;;;;;;;5112818;28;2076;-58
2023/05/28 04:11:24;;;;;;;;;;;;;;;;;;5094262;28;1879;-59
2023/05/28 04:13:52;;;;;;;;;;;;;;;;;;5094226;28;2045;-55
2023/05/28 04:16:22;;;;;;;;;;;;;;;;;;5093691;28;1773;-57
2023/05/28 04:18:50;;;;;;;;;;;;;;;;;;5112262;28;1933;-57
2023/05/28 04:21:18;;;;;;;;;;;;;;;;;;5111934;28;1982;-61
2023/05/28 04:23:45;;;;;;;;;;;;;;;;;;5093486;28;1932;-64
2023/05/28 04:26:14;;;;;;;;;;;;;;;;;;5111664;28;1430;-63
2023/05/28 04:28:41;;;;;;;;;;;;;;;;;;5093384;28;2048;-63
2023/05/28 04:31:09;;;;;;;;;;;;;;;;;;5093408;28;2293;-59
2023/05/28 04:33:36;;;;;;;;;;;;;;;;;;5093381;28;2049;-61
2023/05/28 04:36:04;;;;;;;;;;;;;;;;;;5093277;28;2081;-58
2023/05/28 04:38:31;;;;;;;;;;;;;;;;;;5111568;28;1910;-63
2023/05/28 04:40:59;;;;;;;;;;;;;;;;;;5111781;28;1817;-58
2023/05/28 04:43:29;;;;;;;;;;;;;;;;;;5093423;28;2369;-49
2023/05/28 04:45:58;;;;;;;;;;;;;;;;;;5093458;28;2239;-56
2023/05/28 04:48:26;;;;;;;;;;;;;;;;;;5093577;28;1808;-58
2023/05/28 04:50:53;;;;;;;;;;;;;;;;;;5111622;28;1433;-55
2023/05/28 04:53:21;;;;;;;;;;;;;;;;;;5090400;28;2014;-61
2023/05/28 04:55:48;;;;;;;;;;;;;;;;;;5073077;28;1849;-59
2023/05/28 04:58:16;;;;;;;;;;;;;;;;;;5104688;28;1849;-59
2023/05/28 05:00:43;;;;;;;;;;;;;;;;;;5093036;28;2012;-61
2023/05/28 05:03:10;;;;;;;;;;;;;;;;;;5093085;28;2151;-61
2023/05/28 05:05:40;;;;;;;;;;;;;;;;;;5093118;28;2142;-54
2023/05/28 05:08:09;;;;;;;;;;;;;;;;;;5093050;28;2147;-59
2023/05/28 05:10:36;;;;;;;;;;;;;;;;;;5093085;28;1657;-56
2023/05/28 05:13:03;;;;;;;;;;;;;;;;;;5092911;28;2113;-56
2023/05/28 05:15:30;;;;;;;;;;;;;;;;;;5092889;28;2332;-52
2023/05/28 05:17:57;;;;;;;;;;;;;;;;;;5093268;28;2054;-58
2023/05/28 05:20:26;;;;;;;;;;;;;;;;;;5093163;28;1877;-63
2023/05/28 05:22:54;;;;;;;;;;;;;;;;;;5092957;28;2183;-53
2023/05/28 05:25:22;;;;;;;;;;;;;;;;;;5092861;28;1929;-63
2023/05/28 05:27:50;;;;;;;;;;;;;;;;;;5092788;28;1725;-60
2023/05/28 05:30:17;;;;;;;;;;;;;;;;;;5093008;28;1815;-61
2023/05/28 05:32:44;;;;;;;;;;;;;;;;;;5092774;28;1970;-56
2023/05/28 05:35:12;;;;;;;;;;;;;;;;;;5093127;28;2020;-60
2023/05/28 05:38:06;;;;;;;;;;;;;;;;;;5092759;28;1999;-56
2023/05/28 05:41:02;;;;;;;;;;;;;;;;;;5101013;28;2306;-54
2023/05/28 05:43:45;;;;;;;;;;;;;;;;;;5092863;28;2052;-55
2023/05/28 05:46:12;;;;;;;;;;;;;;;;;;5092766;28;1995;-57
2023/05/28 05:48:40;;;;;;;;;;;;;;;;;;5092608;28;1832;-55
2023/05/28 05:51:08;;;;;;;;;;;;;;;;;;5092402;28;1878;-55
2023/05/28 05:53:41;;;;;;;;;;;;;;;;;;5092273;28;2075;-59
2023/05/28 05:56:09;;;;;;;;;;;;;;;;;;5110925;28;1846;-60
2023/05/28 05:58:37;;;;;;;;;;;;;;;;;;5110781;28;2100;-66
2023/05/28 06:01:05;;;;;;;;;;;;;;;;;;5094655;28;2135;-56
2023/05/28 06:03:32;;;;;;;;;;;;;;;;;;5114500;28;1985;-56
2023/05/28 06:05:59;;;;;;;;;;;;;;;;;;5114680;28;2145;-57
2023/05/28 06:08:35;;;;;;;;;;;;;;;;;;5095922;28;2056;-62
2023/05/28 06:11:35;;;;;;;;;;;;;;;;;;5114036;28;2005;-64
2023/05/28 06:14:03;;;;;;;;;;;;;;;;;;5096276;28;1965;-53
2023/05/28 06:16:30;;;;;;;;;;;;;;;;;;5114276;28;2004;-57
2023/05/28 06:18:57;;;;;;;;;;;;;;;;;;5095888;28;2122;-60
2023/05/28 06:21:24;;;;;;;;;;;;;;;;;;5095822;28;2128;-61
2023/05/28 06:23:52;;;;;;;;;;;;;;;;;;5095990;28;2184;-62
2023/05/28 06:26:20;;;;;;;;;;;;;;;;;;5096355;28;1905;-61
2023/05/28 06:28:47;;;;;;;;;;;;;;;;;;5095634;28;1907;-56
2023/05/28 06:31:15;;;;;;;;;;;;;;;;;;5095678;28;2000;-58
2023/05/28 06:33:43;;;;;;;;;;;;;;;;;;5095673;28;1805;-53
2023/05/28 06:36:10;;;;;;;;;;;;;;;;;;5113876;28;1917;-55
2023/05/28 06:38:37;;;;;;;;;;;;;;;;;;5095725;28;1638;-56
2023/05/28 06:41:04;;;;;;;;;;;;;;;;;;5095442;28;1810;-57
2023/05/28 06:43:39;;;;;;;;;;;;;;;;;;5095289;28;2140;-56
2023/05/28 06:46:16;;;;;;;;;;;;;;;;;;5095406;28;1454;-54
2023/05/28 06:48:47;;;;;;;;;;;;;;;;;;5113518;28;2141;-54
2023/05/28 06:51:15;;;;;;;;;;;;;;;;;;5112424;28;2223;-56
2023/05/28 06:53:42;;;;;;;;;;;;;;;;;;5113908;28;2005;-56
2023/05/28 06:56:12;;;;;;;;;;;;;;;;;;5113663;28;1535;-56
2023/05/28 06:58:39;;;;;;;;;;;;;;;;;;5096733;28;1957;-53
2023/05/28 07:01:07;;;;;;;;;;;;;;;;;;5093329;28;1992;-58
2023/05/28 07:03:53;;;;;;;;;;;;;;;;;;5093145;28;1983;-60
2023/05/28 07:06:34;;;;;;;;;;;;;;;;;;5091990;28;2107;-56
2023/05/28 07:09:02;;;;;;;;;;;;;;;;;;5093133;28;2167;-59
2023/05/28 07:11:29;;;;;;;;;;;;;;;;;;5091899;28;2240;-59
2023/05/28 07:13:56;;;;;;;;;;;;;;;;;;5091304;28;2200;-57
2023/05/28 07:16:25;;;;;;;;;;;;;;;;;;5092725;28;1833;-56
2023/05/28 07:18:52;;;;;;;;;;;;;;;;;;5091537;28;1808;-59
2023/05/28 07:21:20;;;;;;;;;;;;;;;;;;5091479;28;1843;-56
2023/05/28 07:23:47;;;;;;;;;;;;;;;;;;5092861;28;1960;-58
2023/05/28 07:26:14;;;;;;;;;;;;;;;;;;5090879;28;1887;-52
2023/05/28 07:28:44;;;;;;;;;;;;;;;;;;5091417;28;2225;-55
2023/05/28 07:31:11;;;;;;;;;;;;;;;;;;5092587;28;1902;-57
2023/05/28 07:33:39;;;;;;;;;;;;;;;;;;5091317;28;2053;-56
2023/05/28 07:36:07;;;;;;;;;;;;;;;;;;5091477;28;2227;-59
2023/05/28 07:38:36;;;;;;;;;;;;;;;;;;5091701;28;1905;-56
2023/05/28 07:41:04;;;;;;;;;;;;;;;;;;5091152;28;1494;-54
2023/05/28 07:43:44;;;;;;;;;;;;;;;;;;5091293;28;2306;-58
2023/05/28 07:46:18;;;;;;;;;;;;;;;;;;5091170;28;2140;-50
2023/05/28 07:48:49;;;;;;;;;;;;;;;;;;5091050;28;2049;-55
2023/05/28 07:51:43;;;;;;;;;;;;;;;;;;5091986;28;1988;-57
2023/05/28 07:54:15;;;;;;;;;;;;;;;;;;5094214;28;2038;-57
2023/05/28 07:56:43;;;;;;;;;;;;;;;;;;5112453;28;2245;-57
2023/05/28 07:59:21;;;;;;;;;;;;;;;;;;5090876;28;1995;-59
2023/05/28 08:01:49;;;;;;;;;;;;;;;;;;5090848;28;1993;-52
2023/05/28 08:04:17;;;;;;;;;;;;;;;;;;5092058;28;1971;-60
2023/05/28 08:06:44;;;;;;;;;;;;;;;;;;5090558;28;1299;-56
2023/05/28 08:09:17;;;;;;;;;;;;;;;;;;5090619;28;1960;-55
2023/05/28 08:11:49;;;;;;;;;;;;;;;;;;5092129;28;1996;-62
2023/05/28 08:14:19;;;;;;;;;;;;;;;;;;5092257;28;1596;-54
2023/05/28 08:16:48;;;;;;;;;;;;;;;;;;5090867;28;1853;-60
2023/05/28 08:19:23;;;;;;;;;;;;;;;;;;5090588;28;2143;-58
2023/05/28 08:21:53;;;;;;;;;;;;;;;;;;5090335;28;2074;-55
2023/05/28 08:24:22;;;;;;;;;;;;;;;;;;5089861;28;2073;-54
2023/05/28 08:26:52;;;;;;;;;;;;;;;;;;5090111;28;2243;-54
2023/05/28 08:29:22;;;;;;;;;;;;;;;;;;5089085;28;1966;-52
2023/05/28 08:31:58;;;;;;;;;;;;;;;;;;5090141;28;1722;-55
2023/05/28 08:34:38;;;;;;;;;;;;;;;;;;5090230;28;1980;-59
2023/05/28 08:37:06;;;;;;;;;;;;;;;;;;5091637;28;1979;-59
2023/05/28 08:39:54;;;;;;;;;;;;;;;;;;5091534;28;1646;-61
2023/05/28 08:42:22;;;;;;;;;;;;;;;;;;5090009;28;2140;-56
2023/05/28 08:44:49;;;;;;;;;;;;;;;;;;5090044;28;2043;-54
2023/05/28 08:47:18;;;;;;;;;;;;;;;;;;5089934;28;2067;-52
2023/05/28 08:50:06;;;;;;;;;;;;;;;;;;5090665;28;1822;-60
2023/05/28 08:52:50;;;;;;;;;;;;;;;;;;5089975;28;2090;-55
2023/05/28 08:55:19;;;;;;;;;;;;;;;;;;5093256;28;2034;-54
2023/05/28 08:57:52;;;;;;;;;;;;;;;;;;5089959;28;2030;-57
2023/05/28 09:00:22;;;;;;;;;;;;;;;;;;5089809;28;2286;-58
2023/05/28 09:03:09;;;;;;;;;;;;;;;;;;5091279;28;1910;-54
2023/05/28 09:05:40;;;;;;;;;;;;;;;;;;5089871;28;1899;-64
2023/05/28 09:08:08;;;;;;;;;;;;;;;;;;5089721;28;1944;-53
2023/05/28 09:10:39;;;;;;;;;;;;;;;;;;5090811;28;2039;-63
2023/05/28 09:13:09;;;;;;;;;;;;;;;;;;5090220;28;1964;-61
2023/05/28 09:15:37;;;;;;;;;;;;;;;;;;5089395;28;2114;-60
2023/05/28 09:18:07;;;;;;;;;;;;;;;;;;5089786;28;1853;-62
2023/05/28 09:20:37;;;;;;;;;;;;;;;;;;5089520;28;2147;-62
2023/05/28 09:23:12;;;;;;;;;;;;;;;;;;5090590;28;2060;-55
2023/05/28 09:26:16;;;;;;;;;;;;;;;;;;5056379;28;1874;-52
2023/05/28 09:28:57;;;;;;;;;;;;;;;;;;5089645;28;1811;-60
2023/05/28 09:31:32;;;;;;;;;;;;;;;;;;5090643;28;1979;-55
2023/05/28 09:34:04;;;;;;;;;;;;;;;;;;5090963;28;1769;-59
2023/05/28 09:36:39;;;;;;;;;;;;;;;;;;5094411;28;1939;-57
2023/05/28 09:39:12;;;;;;;;;;;;;;;;;;5094781;28;1971;-55
2023/05/28 09:41:44;;;;;;;;;;;;;;;;;;5094921;28;2144;-57
2023/05/28 09:44:20;;;;;;;;;;;;;;;;;;5094461;28;2023;-54
2023/05/28 09:46:51;;;;;;;;;;;;;;;;;;5094091;28;2125;-62
2023/05/28 09:49:24;;;;;;;;;;;;;;;;;;5094263;28;2007;-55
2023/05/28 09:51:57;;;;;;;;;;;;;;;;;;5094362;28;1711;-55
2023/05/28 09:54:35;;;;;;;;;;;;;;;;;;5106367;28;2243;-58
2023/05/28 09:57:08;;;;;;;;;;;;;;;;;;5111130;28;1995;-60
2023/05/28 09:59:40;;;;;;;;;;;;;;;;;;5111790;28;1375;-59
2023/05/28 10:02:18;;;;;;;;;;;;;;;;;;5114703;28;2063;-59
2023/05/28 10:04:56;;;;;;;;;;;;;;;;;;5114628;28;2173;-56
2023/05/28 10:07:28;;;;;;;;;;;;;;;;;;5099837;28;2115;-58
2023/05/28 10:10:01;;;;;;;;;;;;;;;;;;5093925;28;1967;-57
2023/05/28 10:12:31;;;;;;;;;;;;;;;;;;5094139;28;1975;-54
2023/05/28 10:15:00;;;;;;;;;;;;;;;;;;5093872;28;2010;-57
2023/05/28 10:29:09;;;;;;;;;;;;;;;;;;5000498;28;2259;-59
2023/05/28 10:31:37;;;;;;;;;;;;;;;;;;5035859;28;995;-61
2023/05/28 10:37:08;;;;;;;;;;;;;;;;;;4909659;23;1983;-62
2023/05/28 10:39:39;;;;;;;;;;;;;;;;;;4897417;29;1959;-59
2023/05/28 10:42:10;;;;;;;;;;;;;;;;;;4897383;29;1749;-61
2023/05/28 10:45:11;;;;;;;;;;;;;;;;;;4897580;29;1915;-61
2023/05/28 10:47:41;;;;;;;;;;;;;;;;;;4896691;29;1860;-54
2023/05/28 10:50:08;;;;;;;;;;;;;;;;;;4897293;29;2149;-58
2023/05/28 10:52:43;;;;;;;;;;;;;;;;;;4897125;29;2107;-63
2023/05/28 10:55:11;;;;;;;;;;;;;;;;;;4899737;29;2188;-58
2023/05/28 10:57:40;;;;;;;;;;;;;;;;;;4889549;29;2322;-60
2023/05/28 11:00:12;;;;;;;;;;;;;;;;;;4878714;29;1918;-62
2023/05/28 11:02:44;;;;;;;;;;;;;;;;;;4878409;29;2268;-61
2023/05/28 11:05:11;;;;;;;;;;;;;;;;;;4878371;29;1907;-60
2023/05/28 11:07:41;;;;;;;;;;;;;;;;;;4878313;29;2230;-56
2023/05/28 11:10:10;;;;;;;;;;;;;;;;;;4878397;29;1997;-57
2023/05/28 11:12:40;;;;;;;;;;;;;;;;;;4878282;29;2129;-57
2023/05/28 11:15:09;;;;;;;;;;;;;;;;;;4878265;29;1854;-55
2023/05/28 11:17:37;;;;;;;;;;;;;;;;;;4877973;29;2051;-57
2023/05/28 11:20:05;;;;;;;;;;;;;;;;;;4877801;29;2142;-59
2023/05/28 11:22:35;;;;;;;;;;;;;;;;;;4878422;29;1867;-59
2023/05/28 11:25:06;;;;;;;;;;;;;;;;;;4878173;29;2161;-57
2023/05/28 11:27:37;;;;;;;;;;;;;;;;;;4878267;29;1905;-55
2023/05/28 11:30:16;;;;;;;;;;;;;;;;;;4877466;29;2137;-55
2023/05/28 11:32:44;;;;;;;;;;;;;;;;;;4877712;29;1811;-57
2023/05/28 11:35:12;;;;;;;;;;;;;;;;;;4877331;29;2538;-53
2023/05/28 11:37:40;;;;;;;;;;;;;;;;;;4877987;29;1808;-65
2023/05/28 11:40:12;;;;;;;;;;;;;;;;;;4878071;29;2230;-60
2023/05/28 11:42:41;;;;;;;;;;;;;;;;;;4877987;29;2115;-61
2023/05/28 11:45:09;;;;;;;;;;;;;;;;;;4877842;29;2156;-59
2023/05/28 11:47:37;;;;;;;;;;;;;;;;;;4877509;29;2039;-56
2023/05/28 11:50:07;;;;;;;;;;;;;;;;;;4877818;29;1932;-57
2023/05/28 11:52:35;;;;;;;;;;;;;;;;;;4877703;29;2044;-55
2023/05/28 11:55:05;;;;;;;;;;;;;;;;;;4895687;29;1645;-56
2023/05/28 11:57:39;;;;;;;;;;;;;;;;;;4889655;29;2086;-53
2023/05/28 12:00:15;;;;;;;;;;;;;;;;;;4896518;29;1595;-57
2023/05/28 12:02:45;;;;;;;;;;;;;;;;;;4895555;29;1750;-52
2023/05/28 12:05:13;;;;;;;;;;;;;;;;;;4896066;29;1911;-56
2023/05/28 12:07:47;;;;;;;;;;;;;;;;;;4895704;29;1809;-53
2023/05/28 12:10:16;;;;;;;;;;;;;;;;;;4895804;29;1759;-57
2023/05/28 12:12:45;;;;;;;;;;;;;;;;;;4895488;29;1767;-58
2023/05/28 12:15:12;;;;;;;;;;;;;;;;;;4895786;29;1827;-58
2023/05/28 12:17:41;;;;;;;;;;;;;;;;;;4881004;29;1929;-59
2023/05/28 12:20:13;;;;;;;;;;;;;;;;;;4876997;29;1835;-61
2023/05/28 12:22:41;;;;;;;;;;;;;;;;;;4876986;29;2060;-60
2023/05/28 12:25:08;;;;;;;;;;;;;;;;;;4876904;29;1986;-50
2023/05/28 12:27:36;;;;;;;;;;;;;;;;;;4877562;29;1612;-58
2023/05/28 12:30:05;;;;;;;;;;;;;;;;;;4876614;29;1729;-56
2023/05/28 12:32:34;;;;;;;;;;;;;;;;;;4877013;29;1806;-56
2023/05/28 12:35:02;;;;;;;;;;;;;;;;;;4876739;29;1786;-53
2023/05/28 12:37:29;;;;;;;;;;;;;;;;;;4876982;29;2005;-60
2023/05/28 12:39:57;;;;;;;;;;;;;;;;;;4876959;29;1706;-61
2023/05/28 12:42:24;;;;;;;;;;;;;;;;;;4876766;29;1872;-63
2023/05/28 12:44:51;;;;;;;;;;;;;;;;;;4876872;29;1915;-58
2023/05/28 12:47:19;;;;;;;;;;;;;;;;;;4876988;29;1805;-59
2023/05/28 12:49:46;;;;;;;;;;;;;;;;;;4876088;29;1711;-60
2023/05/28 12:52:14;;;;;;;;;;;;;;;;;;4875517;29;1689;-61
2023/05/28 12:54:41;;;;;;;;;;;;;;;;;;4890160;29;2054;-57
2023/05/28 12:57:08;;;;;;;;;;;;;;;;;;4890511;29;1759;-59
2023/05/28 12:59:36;;;;;;;;;;;;;;;;;;4892099;29;1731;-58
2023/05/28 13:02:03;;;;;;;;;;;;;;;;;;4894529;29;1710;-58
2023/05/28 13:04:30;;;;;;;;;;;;;;;;;;4894917;29;1910;-57
2023/05/28 13:06:58;;;;;;;;;;;;;;;;;;4895528;29;1679;-59
2023/05/28 13:09:26;;;;;;;;;;;;;;;;;;4897129;29;2022;-60
2023/05/28 13:11:54;;;;;;;;;;;;;;;;;;4898319;29;2042;-58
2023/05/28 13:14:22;;;;;;;;;;;;;;;;;;4898809;29;2083;-57
2023/05/28 13:16:49;;;;;;;;;;;;;;;;;;4898668;29;2022;-60
2023/05/28 13:19:16;;;;;;;;;;;;;;;;;;4898956;29;1969;-60
2023/05/28 13:21:44;;;;;;;;;;;;;;;;;;4899074;29;1710;-56
2023/05/28 13:24:11;;;;;;;;;;;;;;;;;;4898600;29;1985;-61
2023/05/28 13:26:38;;;;;;;;;;;;;;;;;;4898905;29;1903;-58
2023/05/28 13:29:06;;;;;;;;;;;;;;;;;;4898246;29;1813;-61
2023/05/28 13:31:34;;;;;;;;;;;;;;;;;;4898808;29;1630;-54
2023/05/28 13:34:02;;;;;;;;;;;;;;;;;;4898511;29;1726;-53
2023/05/28 13:36:30;;;;;;;;;;;;;;;;;;4898225;29;1765;-51
2023/05/28 13:38:58;;;;;;;;;;;;;;;;;;4898312;29;1947;-57
2023/05/28 13:41:25;;;;;;;;;;;;;;;;;;4898493;29;2082;-60
2023/05/28 13:43:54;;;;;;;;;;;;;;;;;;4898088;29;1913;-57
2023/05/28 13:46:24;;;;;;;;;;;;;;;;;;4898337;29;1930;-56
2023/05/28 13:48:52;;;;;;;;;;;;;;;;;;4898381;29;2083;-55
2023/05/28 13:51:20;;;;;;;;;;;;;;;;;;4897786;29;1845;-58
2023/05/28 13:53:48;;;;;;;;;;;;;;;;;;4900083;29;1717;-53
2023/05/28 13:56:15;;;;;;;;;;;;;;;;;;4898521;29;1644;-59
2023/05/28 13:58:42;;;;;;;;;;;;;;;;;;4882425;29;1842;-53
2023/05/28 14:01:10;;;;;;;;;;;;;;;;;;4879638;29;1866;-62
2023/05/28 14:03:37;;;;;;;;;;;;;;;;;;4879591;29;1804;-62
2023/05/28 14:06:05;;;;;;;;;;;;;;;;;;4881820;29;1992;-56
2023/05/28 14:08:32;;;;;;;;;;;;;;;;;;4879036;29;1935;-56
2023/05/28 14:10:59;;;;;;;;;;;;;;;;;;4879569;29;1679;-62
2023/05/28 14:13:31;;;;;;;;;;;;;;;;;;4879037;29;1876;-59
2023/05/28 14:15:59;;;;;;;;;;;;;;;;;;4878916;29;1929;-60
2023/05/28 14:18:26;;;;;;;;;;;;;;;;;;4879349;29;1642;-61
2023/05/28 14:20:53;;;;;;;;;;;;;;;;;;4877959;29;1978;-51
2023/05/28 14:23:21;;;;;;;;;;;;;;;;;;4895434;29;1712;-62
2023/05/28 14:25:49;;;;;;;;;;;;;;;;;;4898043;29;1914;-62
2023/05/28 14:28:16;;;;;;;;;;;;;;;;;;4878846;29;1996;-49
2023/05/28 14:30:44;;;;;;;;;;;;;;;;;;4879545;29;1720;-60
2023/05/28 14:33:11;;;;;;;;;;;;;;;;;;4878729;29;2051;-61
2023/05/28 14:35:39;;;;;;;;;;;;;;;;;;4878507;29;1813;-58
2023/05/28 14:38:06;;;;;;;;;;;;;;;;;;4878720;29;1994;-56
2023/05/28 14:40:33;;;;;;;;;;;;;;;;;;4878698;29;1782;-62
2023/05/28 14:43:01;;;;;;;;;;;;;;;;;;4897319;29;1715;-61
2023/05/28 14:45:28;;;;;;;;;;;;;;;;;;4897230;29;1974;-60
2023/05/28 14:47:55;;;;;;;;;;;;;;;;;;4897382;29;1737;-56
2023/05/28 14:50:23;;;;;;;;;;;;;;;;;;4897300;29;1737;-57
2023/05/28 14:52:51;;;;;;;;;;;;;;;;;;4896184;29;1702;-63
2023/05/28 14:55:18;;;;;;;;;;;;;;;;;;4898060;29;1957;-57
2023/05/28 14:57:47;;;;;;;;;;;;;;;;;;4888584;29;1761;-59
2023/05/28 15:00:17;;;;;;;;;;;;;;;;;;4878722;29;1711;-55
2023/05/28 15:02:46;;;;;;;;;;;;;;;;;;4877133;29;1801;-62
2023/05/28 15:05:13;;;;;;;;;;;;;;;;;;4878393;29;1992;-58
2023/05/28 15:07:41;;;;;;;;;;;;;;;;;;4878243;29;2103;-60
2023/05/28 15:10:09;;;;;;;;;;;;;;;;;;4878319;29;1873;-60
2023/05/28 15:12:37;;;;;;;;;;;;;;;;;;4878236;29;1809;-61
2023/05/28 15:15:04;;;;;;;;;;;;;;;;;;4879343;29;1658;-61
2023/05/28 15:17:31;;;;;;;;;;;;;;;;;;4878431;29;1711;-60
2023/05/28 15:19:59;;;;;;;;;;;;;;;;;;4877730;29;1725;-59
2023/05/28 15:22:26;;;;;;;;;;;;;;;;;;4877774;29;1752;-57
2023/05/28 15:24:54;;;;;;;;;;;;;;;;;;4877389;29;2139;-54
2023/05/28 15:27:22;;;;;;;;;;;;;;;;;;4877834;29;1792;-55
2023/05/28 15:29:49;;;;;;;;;;;;;;;;;;4878331;29;1678;-54
2023/05/28 15:32:16;;;;;;;;;;;;;;;;;;4875895;29;1722;-61
2023/05/28 15:34:44;;;;;;;;;;;;;;;;;;4878004;29;1766;-58
2023/05/28 15:37:13;;;;;;;;;;;;;;;;;;4877450;29;1824;-56
2023/05/28 15:39:40;;;;;;;;;;;;;;;;;;4877901;29;1627;-59
2023/05/28 15:42:08;;;;;;;;;;;;;;;;;;4877518;29;1786;-59
2023/05/28 15:44:35;;;;;;;;;;;;;;;;;;4877504;29;1987;-61
2023/05/28 15:47:02;;;;;;;;;;;;;;;;;;4877684;29;1726;-54
2023/05/28 15:49:30;;;;;;;;;;;;;;;;;;4877393;29;1792;-58
2023/05/28 15:51:57;;;;;;;;;;;;;;;;;;4877553;29;1769;-57
2023/05/28 15:54:25;;;;;;;;;;;;;;;;;;4890020;29;1892;-57
2023/05/28 15:56:53;;;;;;;;;;;;;;;;;;4894690;29;1666;-57
2023/05/28 15:59:21;;;;;;;;;;;;;;;;;;4877945;29;1813;-59
2023/05/28 16:01:52;;;;;;;;;;;;;;;;;;4876844;29;1881;-58
2023/05/28 16:04:20;;;;;;;;;;;;;;;;;;4876219;29;2089;-54
2023/05/28 16:06:48;;;;;;;;;;;;;;;;;;4875681;29;1982;-53
2023/05/28 16:09:15;;;;;;;;;;;;;;;;;;4875599;29;1879;-53
2023/05/28 16:11:44;;;;;;;;;;;;;;;;;;4877378;29;1665;-58
2023/05/28 16:14:14;;;;;;;;;;;;;;;;;;4875829;29;2038;-60
2023/05/28 16:16:45;;;;;;;;;;;;;;;;;;4875475;29;2041;-53
2023/05/28 16:19:13;;;;;;;;;;;;;;;;;;4875741;29;1726;-56
2023/05/28 16:21:41;;;;;;;;;;;;;;;;;;4875821;29;1847;-56
2023/05/28 16:24:08;;;;;;;;;;;;;;;;;;4875478;29;1780;-53
2023/05/28 16:26:36;;;;;;;;;;;;;;;;;;4875615;29;1911;-58
2023/05/28 16:29:03;;;;;;;;;;;;;;;;;;4875197;29;2129;-60
2023/05/28 16:31:31;;;;;;;;;;;;;;;;;;4875663;29;1863;-60
2023/05/28 16:33:58;;;;;;;;;;;;;;;;;;4875552;29;1796;-62
2023/05/28 16:36:26;;;;;;;;;;;;;;;;;;4874220;29;2171;-58
2023/05/28 16:38:53;;;;;;;;;;;;;;;;;;4875535;29;1696;-58
2023/05/28 16:41:21;;;;;;;;;;;;;;;;;;4875305;29;1889;-59
2023/05/28 16:43:49;;;;;;;;;;;;;;;;;;4874965;29;1768;-55
2023/05/28 16:46:17;;;;;;;;;;;;;;;;;;4875265;29;1984;-56
2023/05/28 16:48:45;;;;;;;;;;;;;;;;;;4875131;29;1812;-55
2023/05/28 16:51:13;;;;;;;;;;;;;;;;;;4875473;29;1646;-59
2023/05/28 16:53:40;;;;;;;;;;;;;;;;;;4882165;29;1706;-58
2023/05/28 16:56:08;;;;;;;;;;;;;;;;;;4893832;29;1689;-59
2023/05/28 16:58:35;;;;;;;;;;;;;;;;;;4878896;29;1676;-52
2023/05/28 17:01:04;;;;;;;;;;;;;;;;;;4875216;29;1757;-62
2023/05/28 17:03:32;;;;;;;;;;;;;;;;;;4875389;29;1671;-61
2023/05/28 17:05:59;;;;;;;;;;;;;;;;;;4874952;29;1947;-57
2023/05/28 17:08:26;;;;;;;;;;;;;;;;;;4876841;29;1985;-52
2023/05/28 17:10:53;;;;;;;;;;;;;;;;;;4876519;29;1918;-62
2023/05/28 17:13:23;;;;;;;;;;;;;;;;;;4876606;29;1859;-61
2023/05/28 17:15:50;;;;;;;;;;;;;;;;;;4876072;29;1880;-57
2023/05/28 17:18:18;;;;;;;;;;;;;;;;;;4876531;29;1803;-53
2023/05/28 17:20:46;;;;;;;;;;;;;;;;;;4876577;29;1733;-59
2023/05/28 17:23:13;;;;;;;;;;;;;;;;;;4876616;29;1668;-59
2023/05/28 17:25:40;;;;;;;;;;;;;;;;;;4876508;29;1915;-55
2023/05/28 17:28:08;;;;;;;;;;;;;;;;;;4876166;29;1626;-53
2023/05/28 17:30:35;;;;;;;;;;;;;;;;;;4876461;29;1649;-63
2023/05/28 17:33:02;;;;;;;;;;;;;;;;;;4875948;29;1729;-54